sensor_id;sensor_type;location;lat;lon;timestamp;P1;durP1;ratioP1;P2;durP2;ratioP2
67768;SDS011;54569;52.018;5.584;2023-01-24T00:01:18;11.70;;;9.30;;
67768;SDS011;54569;52.018;5.584;2023-01-24T00:03:44;13.52;;;9.48;;
67768;SDS011;54569;52.018;5.584;2023-01-24T00:06:09;15.15;;;11.25;;
67768;SDS011;54569;52.018;5.584;2023-01-24T00:08:35;14.15;;;11.02;;
67768;SDS011;54569;52.018;5.584;2023-01-24T00:11:07;15.25;;;10.60;;
67768;SDS011;54569;52.018;5.584;2023-01-24T00:13:34;13.95;;;10.32;;
67768;SDS011;54569;52.018;5.584;2023-01-24T00:16:04;12.90;;;10.13;;
67768;SDS011;54569;52.018;5.584;2023-01-24T00:18:45;14.25;;;10.50;;
67768;SDS011;54569;52.018;5.584;2023-01-24T00:21:12;14.38;;;10.48;;
67768;SDS011;54569;52.018;5.584;2023-01-24T00:23:40;13.07;;;9.95;;
67768;SDS011;54569;52.018;5.584;2023-01-24T00:26:07;14.27;;;10.27;;
67768;SDS011;54569;52.018;5.584;2023-01-24T00:28:33;15.80;;;9.85;;
67768;SDS011;54569;52.018;5.584;2023-01-24T00:30:59;15.15;;;10.52;;
67768;SDS011;54569;52.018;5.584;2023-01-24T00:33:25;14.55;;;10.45;;
67768;SDS011;54569;52.018;5.584;2023-01-24T00:35:51;15.20;;;10.10;;
67768;SDS011;54569;52.018;5.584;2023-01-24T00:38:17;13.43;;;9.85;;
67768;SDS011;54569;52.018;5.584;2023-01-24T00:40:43;14.07;;;10.45;;
67768;SDS011;54569;52.018;5.584;2023-01-24T00:43:10;13.77;;;10.13;;
67768;SDS011;54569;52.018;5.584;2023-01-24T00:45:36;14.38;;;10.30;;
67768;SDS011;54569;52.018;5.584;2023-01-24T00:48:02;13.75;;;9.80;;
67768;SDS011;54569;52.018;5.584;2023-01-24T00:50:29;13.70;;;9.90;;
67768;SDS011;54569;52.018;5.584;2023-01-24T00:52:55;14.82;;;10.32;;
67768;SDS011;54569;52.018;5.584;2023-01-24T00:55:21;14.70;;;10.48;;
67768;SDS011;54569;52.018;5.584;2023-01-24T00:57:47;13.95;;;9.93;;
67768;SDS011;54569;52.018;5.584;2023-01-24T01:00:12;14.00;;;10.07;;
67768;SDS011;54569;52.018;5.584;2023-01-24T01:02:38;14.15;;;9.77;;
67768;SDS011;54569;52.018;5.584;2023-01-24T01:05:04;12.77;;;9.20;;
67768;SDS011;54569;52.018;5.584;2023-01-24T01:07:30;12.70;;;9.50;;
67768;SDS011;54569;52.018;5.584;2023-01-24T01:09:56;12.55;;;10.10;;
67768;SDS011;54569;52.018;5.584;2023-01-24T01:12:22;12.15;;;9.13;;
67768;SDS011;54569;52.018;5.584;2023-01-24T01:14:47;12.60;;;9.57;;
67768;SDS011;54569;52.018;5.584;2023-01-24T01:17:13;12.55;;;9.20;;
67768;SDS011;54569;52.018;5.584;2023-01-24T01:19:39;13.85;;;9.95;;
67768;SDS011;54569;52.018;5.584;2023-01-24T01:22:06;13.68;;;9.48;;
67768;SDS011;54569;52.018;5.584;2023-01-24T01:24:31;13.65;;;9.20;;
67768;SDS011;54569;52.018;5.584;2023-01-24T01:26:57;14.10;;;9.43;;
67768;SDS011;54569;52.018;5.584;2023-01-24T01:29:23;13.13;;;9.77;;
67768;SDS011;54569;52.018;5.584;2023-01-24T01:31:49;11.38;;;8.45;;
67768;SDS011;54569;52.018;5.584;2023-01-24T01:34:15;12.18;;;8.90;;
67768;SDS011;54569;52.018;5.584;2023-01-24T01:36:41;13.27;;;9.73;;
67768;SDS011;54569;52.018;5.584;2023-01-24T01:39:07;14.52;;;9.48;;
67768;SDS011;54569;52.018;5.584;2023-01-24T01:41:32;12.50;;;8.63;;
67768;SDS011;54569;52.018;5.584;2023-01-24T01:47:23;13.15;;;9.70;;
67768;SDS011;54569;52.018;5.584;2023-01-24T01:52:22;12.23;;;8.60;;
67768;SDS011;54569;52.018;5.584;2023-01-24T01:54:51;12.18;;;8.75;;
67768;SDS011;54569;52.018;5.584;2023-01-24T01:57:23;13.88;;;8.48;;
67768;SDS011;54569;52.018;5.584;2023-01-24T02:00:02;12.77;;;9.65;;
67768;SDS011;54569;52.018;5.584;2023-01-24T02:02:37;13.23;;;8.65;;
67768;SDS011;54569;52.018;5.584;2023-01-24T02:05:06;15.40;;;9.85;;
67768;SDS011;54569;52.018;5.584;2023-01-24T02:07:36;15.05;;;9.27;;
67768;SDS011;54569;52.018;5.584;2023-01-24T02:10:07;13.13;;;9.27;;
67768;SDS011;54569;52.018;5.584;2023-01-24T02:12:36;14.38;;;9.02;;
67768;SDS011;54569;52.018;5.584;2023-01-24T02:15:06;14.73;;;9.35;;
67768;SDS011;54569;52.018;5.584;2023-01-24T02:17:55;14.90;;;9.93;;
67768;SDS011;54569;52.018;5.584;2023-01-24T02:20:37;15.85;;;9.63;;
67768;SDS011;54569;52.018;5.584;2023-01-24T02:23:15;15.07;;;10.05;;
67768;SDS011;54569;52.018;5.584;2023-01-24T02:25:45;12.60;;;9.93;;
67768;SDS011;54569;52.018;5.584;2023-01-24T02:28:30;14.20;;;10.43;;
67768;SDS011;54569;52.018;5.584;2023-01-24T02:30:57;16.00;;;9.77;;
67768;SDS011;54569;52.018;5.584;2023-01-24T02:33:24;13.63;;;10.20;;
67768;SDS011;54569;52.018;5.584;2023-01-24T02:35:50;16.15;;;10.48;;
67768;SDS011;54569;52.018;5.584;2023-01-24T02:38:20;15.65;;;10.15;;
67768;SDS011;54569;52.018;5.584;2023-01-24T02:40:50;14.52;;;10.50;;
67768;SDS011;54569;52.018;5.584;2023-01-24T02:43:20;15.80;;;10.30;;
67768;SDS011;54569;52.018;5.584;2023-01-24T02:45:50;14.90;;;10.65;;
67768;SDS011;54569;52.018;5.584;2023-01-24T02:48:16;15.63;;;11.02;;
67768;SDS011;54569;52.018;5.584;2023-01-24T02:50:42;14.63;;;9.80;;
67768;SDS011;54569;52.018;5.584;2023-01-24T02:53:26;16.45;;;10.68;;
67768;SDS011;54569;52.018;5.584;2023-01-24T02:55:59;15.35;;;10.15;;
67768;SDS011;54569;52.018;5.584;2023-01-24T02:58:48;14.55;;;9.60;;
67768;SDS011;54569;52.018;5.584;2023-01-24T03:01:15;15.23;;;10.23;;
67768;SDS011;54569;52.018;5.584;2023-01-24T03:03:44;14.25;;;9.80;;
67768;SDS011;54569;52.018;5.584;2023-01-24T03:06:11;14.85;;;10.00;;
67768;SDS011;54569;52.018;5.584;2023-01-24T03:08:38;14.35;;;10.63;;
67768;SDS011;54569;52.018;5.584;2023-01-24T03:11:12;14.00;;;10.18;;
67768;SDS011;54569;52.018;5.584;2023-01-24T03:13:38;14.45;;;10.25;;
67768;SDS011;54569;52.018;5.584;2023-01-24T03:16:23;15.40;;;10.48;;
67768;SDS011;54569;52.018;5.584;2023-01-24T03:19:07;17.05;;;10.50;;
67768;SDS011;54569;52.018;5.584;2023-01-24T03:21:53;16.75;;;9.93;;
67768;SDS011;54569;52.018;5.584;2023-01-24T03:24:38;17.17;;;10.55;;
67768;SDS011;54569;52.018;5.584;2023-01-24T03:27:22;15.77;;;10.85;;
67768;SDS011;54569;52.018;5.584;2023-01-24T03:30:07;16.90;;;10.80;;
67768;SDS011;54569;52.018;5.584;2023-01-24T03:32:58;16.00;;;10.60;;
67768;SDS011;54569;52.018;5.584;2023-01-24T03:35:45;14.48;;;9.82;;
67768;SDS011;54569;52.018;5.584;2023-01-24T03:38:21;14.45;;;10.05;;
67768;SDS011;54569;52.018;5.584;2023-01-24T03:41:05;15.07;;;10.35;;
67768;SDS011;54569;52.018;5.584;2023-01-24T03:43:33;15.52;;;10.77;;
67768;SDS011;54569;52.018;5.584;2023-01-24T03:45:59;16.70;;;11.15;;
67768;SDS011;54569;52.018;5.584;2023-01-24T03:48:37;16.33;;;10.25;;
67768;SDS011;54569;52.018;5.584;2023-01-24T03:51:04;15.32;;;10.43;;
67768;SDS011;54569;52.018;5.584;2023-01-24T03:53:48;18.27;;;12.10;;
67768;SDS011;54569;52.018;5.584;2023-01-24T03:56:15;16.15;;;10.63;;
67768;SDS011;54569;52.018;5.584;2023-01-24T03:58:46;16.75;;;11.10;;
67768;SDS011;54569;52.018;5.584;2023-01-24T04:01:12;18.33;;;12.57;;
67768;SDS011;54569;52.018;5.584;2023-01-24T04:03:57;17.15;;;11.75;;
67768;SDS011;54569;52.018;5.584;2023-01-24T04:06:23;19.88;;;12.43;;
67768;SDS011;54569;52.018;5.584;2023-01-24T04:08:50;16.80;;;11.95;;
67768;SDS011;54569;52.018;5.584;2023-01-24T04:11:17;17.05;;;11.60;;
67768;SDS011;54569;52.018;5.584;2023-01-24T04:13:42;17.17;;;12.13;;
67768;SDS011;54569;52.018;5.584;2023-01-24T04:16:08;20.15;;;12.63;;
67768;SDS011;54569;52.018;5.584;2023-01-24T04:19:00;20.98;;;12.55;;
67768;SDS011;54569;52.018;5.584;2023-01-24T04:21:26;18.13;;;12.70;;
67768;SDS011;54569;52.018;5.584;2023-01-24T04:23:52;19.05;;;12.70;;
67768;SDS011;54569;52.018;5.584;2023-01-24T04:26:19;20.10;;;13.38;;
67768;SDS011;54569;52.018;5.584;2023-01-24T04:28:46;20.75;;;13.73;;
67768;SDS011;54569;52.018;5.584;2023-01-24T04:31:12;20.45;;;13.63;;
67768;SDS011;54569;52.018;5.584;2023-01-24T04:34:07;19.75;;;13.18;;
67768;SDS011;54569;52.018;5.584;2023-01-24T04:36:35;17.55;;;12.57;;
67768;SDS011;54569;52.018;5.584;2023-01-24T04:39:02;19.50;;;12.70;;
67768;SDS011;54569;52.018;5.584;2023-01-24T04:41:34;21.23;;;13.18;;
67768;SDS011;54569;52.018;5.584;2023-01-24T04:44:00;20.10;;;12.85;;
67768;SDS011;54569;52.018;5.584;2023-01-24T04:46:27;20.88;;;14.57;;
67768;SDS011;54569;52.018;5.584;2023-01-24T04:48:54;18.17;;;13.30;;
67768;SDS011;54569;52.018;5.584;2023-01-24T04:51:26;20.20;;;14.02;;
67768;SDS011;54569;52.018;5.584;2023-01-24T04:53:51;23.70;;;14.73;;
67768;SDS011;54569;52.018;5.584;2023-01-24T04:56:21;20.75;;;14.23;;
67768;SDS011;54569;52.018;5.584;2023-01-24T04:58:48;21.05;;;13.80;;
67768;SDS011;54569;52.018;5.584;2023-01-24T05:01:14;20.48;;;14.10;;
67768;SDS011;54569;52.018;5.584;2023-01-24T05:03:51;21.42;;;14.02;;
67768;SDS011;54569;52.018;5.584;2023-01-24T05:06:24;19.42;;;13.82;;
67768;SDS011;54569;52.018;5.584;2023-01-24T05:08:52;20.48;;;13.98;;
67768;SDS011;54569;52.018;5.584;2023-01-24T05:11:20;21.30;;;14.05;;
67768;SDS011;54569;52.018;5.584;2023-01-24T05:13:49;21.52;;;14.27;;
67768;SDS011;54569;52.018;5.584;2023-01-24T05:16:15;22.27;;;14.43;;
67768;SDS011;54569;52.018;5.584;2023-01-24T05:18:42;21.35;;;13.35;;
67768;SDS011;54569;52.018;5.584;2023-01-24T05:21:08;21.13;;;14.77;;
67768;SDS011;54569;52.018;5.584;2023-01-24T05:23:37;21.27;;;13.57;;
67768;SDS011;54569;52.018;5.584;2023-01-24T05:26:04;22.33;;;13.88;;
67768;SDS011;54569;52.018;5.584;2023-01-24T05:28:31;22.45;;;14.43;;
67768;SDS011;54569;52.018;5.584;2023-01-24T05:30:57;19.38;;;13.57;;
67768;SDS011;54569;52.018;5.584;2023-01-24T05:33:26;22.45;;;13.57;;
67768;SDS011;54569;52.018;5.584;2023-01-24T05:36:02;21.52;;;13.27;;
67768;SDS011;54569;52.018;5.584;2023-01-24T05:38:33;19.90;;;13.35;;
67768;SDS011;54569;52.018;5.584;2023-01-24T05:41:06;22.20;;;13.60;;
67768;SDS011;54569;52.018;5.584;2023-01-24T05:43:34;19.67;;;12.75;;
67768;SDS011;54569;52.018;5.584;2023-01-24T05:46:02;20.90;;;13.57;;
67768;SDS011;54569;52.018;5.584;2023-01-24T05:48:37;20.38;;;13.55;;
67768;SDS011;54569;52.018;5.584;2023-01-24T05:51:05;21.33;;;13.63;;
67768;SDS011;54569;52.018;5.584;2023-01-24T05:53:33;22.23;;;14.35;;
67768;SDS011;54569;52.018;5.584;2023-01-24T05:56:01;21.48;;;13.68;;
67768;SDS011;54569;52.018;5.584;2023-01-24T05:58:38;20.67;;;13.07;;
67768;SDS011;54569;52.018;5.584;2023-01-24T06:01:08;21.90;;;14.18;;
67768;SDS011;54569;52.018;5.584;2023-01-24T06:03:39;20.10;;;13.05;;
67768;SDS011;54569;52.018;5.584;2023-01-24T06:06:06;22.45;;;13.68;;
67768;SDS011;54569;52.018;5.584;2023-01-24T06:08:34;21.88;;;13.68;;
67768;SDS011;54569;52.018;5.584;2023-01-24T06:11:01;23.92;;;12.93;;
67768;SDS011;54569;52.018;5.584;2023-01-24T06:13:33;21.77;;;13.63;;
67768;SDS011;54569;52.018;5.584;2023-01-24T06:16:00;20.33;;;13.05;;
67768;SDS011;54569;52.018;5.584;2023-01-24T06:18:28;23.52;;;14.68;;
67768;SDS011;54569;52.018;5.584;2023-01-24T06:20:54;20.90;;;12.85;;
67768;SDS011;54569;52.018;5.584;2023-01-24T06:23:25;20.23;;;13.60;;
67768;SDS011;54569;52.018;5.584;2023-01-24T06:25:57;23.33;;;13.80;;
67768;SDS011;54569;52.018;5.584;2023-01-24T06:28:23;25.55;;;14.38;;
67768;SDS011;54569;52.018;5.584;2023-01-24T06:31:12;19.17;;;13.02;;
67768;SDS011;54569;52.018;5.584;2023-01-24T06:33:41;19.30;;;12.45;;
67768;SDS011;54569;52.018;5.584;2023-01-24T06:36:40;20.85;;;14.00;;
67768;SDS011;54569;52.018;5.584;2023-01-24T06:39:21;20.30;;;14.02;;
67768;SDS011;54569;52.018;5.584;2023-01-24T06:41:47;25.48;;;14.90;;
67768;SDS011;54569;52.018;5.584;2023-01-24T06:44:13;23.05;;;13.85;;
67768;SDS011;54569;52.018;5.584;2023-01-24T06:46:39;18.35;;;12.88;;
67768;SDS011;54569;52.018;5.584;2023-01-24T06:49:05;21.30;;;14.25;;
67768;SDS011;54569;52.018;5.584;2023-01-24T06:51:31;21.52;;;13.60;;
67768;SDS011;54569;52.018;5.584;2023-01-24T06:53:57;26.92;;;15.50;;
67768;SDS011;54569;52.018;5.584;2023-01-24T06:56:22;26.02;;;15.25;;
67768;SDS011;54569;52.018;5.584;2023-01-24T06:58:48;24.40;;;14.82;;
67768;SDS011;54569;52.018;5.584;2023-01-24T07:01:14;22.23;;;13.98;;
67768;SDS011;54569;52.018;5.584;2023-01-24T07:03:39;23.60;;;14.70;;
67768;SDS011;54569;52.018;5.584;2023-01-24T07:06:05;24.00;;;14.25;;
67768;SDS011;54569;52.018;5.584;2023-01-24T07:08:32;22.33;;;13.85;;
67768;SDS011;54569;52.018;5.584;2023-01-24T07:10:58;22.90;;;13.32;;
67768;SDS011;54569;52.018;5.584;2023-01-24T07:13:24;21.25;;;13.85;;
67768;SDS011;54569;52.018;5.584;2023-01-24T07:15:50;19.55;;;12.70;;
67768;SDS011;54569;52.018;5.584;2023-01-24T07:18:18;21.27;;;13.77;;
67768;SDS011;54569;52.018;5.584;2023-01-24T07:20:44;23.90;;;14.45;;
67768;SDS011;54569;52.018;5.584;2023-01-24T07:23:21;24.30;;;14.77;;
67768;SDS011;54569;52.018;5.584;2023-01-24T07:25:48;21.48;;;14.15;;
67768;SDS011;54569;52.018;5.584;2023-01-24T07:28:14;22.00;;;14.27;;
67768;SDS011;54569;52.018;5.584;2023-01-24T07:30:40;23.08;;;13.85;;
67768;SDS011;54569;52.018;5.584;2023-01-24T07:33:06;22.80;;;14.02;;
67768;SDS011;54569;52.018;5.584;2023-01-24T07:35:32;22.23;;;14.38;;
67768;SDS011;54569;52.018;5.584;2023-01-24T07:37:58;21.10;;;13.18;;
67768;SDS011;54569;52.018;5.584;2023-01-24T07:40:25;22.85;;;13.88;;
67768;SDS011;54569;52.018;5.584;2023-01-24T07:42:50;22.55;;;13.60;;
67768;SDS011;54569;52.018;5.584;2023-01-24T07:45:16;22.67;;;15.02;;
67768;SDS011;54569;52.018;5.584;2023-01-24T07:47:42;22.15;;;14.27;;
67768;SDS011;54569;52.018;5.584;2023-01-24T07:50:07;21.55;;;13.57;;
67768;SDS011;54569;52.018;5.584;2023-01-24T07:52:33;22.25;;;13.75;;
67768;SDS011;54569;52.018;5.584;2023-01-24T07:54:59;20.85;;;14.55;;
67768;SDS011;54569;52.018;5.584;2023-01-24T07:57:25;22.20;;;13.88;;
67768;SDS011;54569;52.018;5.584;2023-01-24T07:59:50;22.67;;;14.45;;
67768;SDS011;54569;52.018;5.584;2023-01-24T08:02:16;19.48;;;12.93;;
67768;SDS011;54569;52.018;5.584;2023-01-24T08:04:42;20.65;;;14.07;;
67768;SDS011;54569;52.018;5.584;2023-01-24T08:07:07;20.52;;;13.35;;
67768;SDS011;54569;52.018;5.584;2023-01-24T08:12:07;21.70;;;14.02;;
67768;SDS011;54569;52.018;5.584;2023-01-24T08:14:33;23.88;;;14.13;;
67768;SDS011;54569;52.018;5.584;2023-01-24T08:16:59;24.67;;;14.77;;
67768;SDS011;54569;52.018;5.584;2023-01-24T08:19:24;21.95;;;14.45;;
67768;SDS011;54569;52.018;5.584;2023-01-24T08:21:50;22.52;;;14.20;;
67768;SDS011;54569;52.018;5.584;2023-01-24T08:24:16;20.45;;;14.23;;
67768;SDS011;54569;52.018;5.584;2023-01-24T08:26:41;21.45;;;14.60;;
67768;SDS011;54569;52.018;5.584;2023-01-24T08:29:11;21.63;;;14.88;;
67768;SDS011;54569;52.018;5.584;2023-01-24T08:31:37;21.52;;;14.32;;
67768;SDS011;54569;52.018;5.584;2023-01-24T08:34:03;22.17;;;14.75;;
67768;SDS011;54569;52.018;5.584;2023-01-24T08:36:29;22.55;;;14.68;;
67768;SDS011;54569;52.018;5.584;2023-01-24T08:38:54;22.63;;;14.93;;
67768;SDS011;54569;52.018;5.584;2023-01-24T08:41:20;21.67;;;13.90;;
67768;SDS011;54569;52.018;5.584;2023-01-24T08:43:45;23.38;;;14.48;;
67768;SDS011;54569;52.018;5.584;2023-01-24T08:46:11;20.00;;;13.63;;
67768;SDS011;54569;52.018;5.584;2023-01-24T08:48:37;23.25;;;14.93;;
67768;SDS011;54569;52.018;5.584;2023-01-24T08:51:03;21.20;;;13.38;;
67768;SDS011;54569;52.018;5.584;2023-01-24T08:53:30;22.63;;;14.85;;
67768;SDS011;54569;52.018;5.584;2023-01-24T08:55:56;19.63;;;13.27;;
67768;SDS011;54569;52.018;5.584;2023-01-24T08:58:21;20.08;;;13.77;;
67768;SDS011;54569;52.018;5.584;2023-01-24T09:00:47;21.85;;;14.77;;
67768;SDS011;54569;52.018;5.584;2023-01-24T09:03:14;20.38;;;14.20;;
67768;SDS011;54569;52.018;5.584;2023-01-24T09:05:41;20.45;;;12.98;;
67768;SDS011;54569;52.018;5.584;2023-01-24T09:08:07;19.80;;;13.02;;
67768;SDS011;54569;52.018;5.584;2023-01-24T09:10:33;18.70;;;13.38;;
67768;SDS011;54569;52.018;5.584;2023-01-24T09:13:00;20.00;;;14.57;;
67768;SDS011;54569;52.018;5.584;2023-01-24T09:15:26;20.40;;;13.38;;
67768;SDS011;54569;52.018;5.584;2023-01-24T09:17:52;19.75;;;13.57;;
67768;SDS011;54569;52.018;5.584;2023-01-24T09:20:17;19.20;;;12.40;;
67768;SDS011;54569;52.018;5.584;2023-01-24T09:22:43;19.27;;;13.60;;
67768;SDS011;54569;52.018;5.584;2023-01-24T09:25:09;22.05;;;13.23;;
67768;SDS011;54569;52.018;5.584;2023-01-24T09:27:35;21.83;;;13.18;;
67768;SDS011;54569;52.018;5.584;2023-01-24T09:30:01;19.88;;;13.32;;
67768;SDS011;54569;52.018;5.584;2023-01-24T09:32:27;20.40;;;13.40;;
67768;SDS011;54569;52.018;5.584;2023-01-24T09:34:53;19.55;;;12.65;;
67768;SDS011;54569;52.018;5.584;2023-01-24T09:37:20;20.20;;;13.45;;
67768;SDS011;54569;52.018;5.584;2023-01-24T09:39:47;16.63;;;11.82;;
67768;SDS011;54569;52.018;5.584;2023-01-24T09:42:16;19.10;;;12.98;;
67768;SDS011;54569;52.018;5.584;2023-01-24T09:50:21;20.30;;;12.30;;
67768;SDS011;54569;52.018;5.584;2023-01-24T09:52:59;18.23;;;12.48;;
67768;SDS011;54569;52.018;5.584;2023-01-24T09:55:34;18.58;;;12.43;;
67768;SDS011;54569;52.018;5.584;2023-01-24T09:58:04;18.33;;;13.02;;
67768;SDS011;54569;52.018;5.584;2023-01-24T10:00:54;18.85;;;11.80;;
67768;SDS011;54569;52.018;5.584;2023-01-24T10:03:21;16.92;;;11.95;;
67768;SDS011;54569;52.018;5.584;2023-01-24T10:05:48;17.23;;;12.35;;
67768;SDS011;54569;52.018;5.584;2023-01-24T10:22:57;18.15;;;12.13;;
67768;SDS011;54569;52.018;5.584;2023-01-24T10:28:08;16.42;;;10.90;;
67768;SDS011;54569;52.018;5.584;2023-01-24T10:33:35;16.23;;;10.82;;
67768;SDS011;54569;52.018;5.584;2023-01-24T10:36:11;16.92;;;11.55;;
67768;SDS011;54569;52.018;5.584;2023-01-24T10:38:39;15.65;;;11.55;;
67768;SDS011;54569;52.018;5.584;2023-01-24T10:41:14;16.17;;;11.60;;
67768;SDS011;54569;52.018;5.584;2023-01-24T10:43:42;17.83;;;11.73;;
67768;SDS011;54569;52.018;5.584;2023-01-24T10:46:20;17.13;;;11.98;;
67768;SDS011;54569;52.018;5.584;2023-01-24T10:48:57;17.52;;;11.57;;
67768;SDS011;54569;52.018;5.584;2023-01-24T10:51:25;15.35;;;11.45;;
67768;SDS011;54569;52.018;5.584;2023-01-24T10:53:51;19.00;;;12.70;;
67768;SDS011;54569;52.018;5.584;2023-01-24T10:56:25;18.60;;;12.43;;
67768;SDS011;54569;52.018;5.584;2023-01-24T10:58:55;16.60;;;11.73;;
67768;SDS011;54569;52.018;5.584;2023-01-24T11:01:37;17.65;;;11.93;;
67768;SDS011;54569;52.018;5.584;2023-01-24T11:04:20;18.17;;;12.82;;
67768;SDS011;54569;52.018;5.584;2023-01-24T11:06:49;18.90;;;12.30;;
67768;SDS011;54569;52.018;5.584;2023-01-24T11:09:19;17.13;;;11.32;;
67768;SDS011;54569;52.018;5.584;2023-01-24T11:11:47;19.25;;;12.52;;
67768;SDS011;54569;52.018;5.584;2023-01-24T11:14:17;19.52;;;12.57;;
67768;SDS011;54569;52.018;5.584;2023-01-24T11:16:50;19.27;;;12.80;;
67768;SDS011;54569;52.018;5.584;2023-01-24T11:21:59;17.50;;;12.32;;
67768;SDS011;54569;52.018;5.584;2023-01-24T11:24:44;21.13;;;13.52;;
67768;SDS011;54569;52.018;5.584;2023-01-24T11:27:17;19.35;;;12.82;;
67768;SDS011;54569;52.018;5.584;2023-01-24T11:29:45;20.48;;;12.88;;
67768;SDS011;54569;52.018;5.584;2023-01-24T11:35:14;20.23;;;12.75;;
67768;SDS011;54569;52.018;5.584;2023-01-24T11:38:15;19.83;;;12.70;;
67768;SDS011;54569;52.018;5.584;2023-01-24T11:40:52;19.23;;;12.68;;
67768;SDS011;54569;52.018;5.584;2023-01-24T11:59:49;20.30;;;13.20;;
67768;SDS011;54569;52.018;5.584;2023-01-24T12:21:15;18.75;;;12.40;;
67768;SDS011;54569;52.018;5.584;2023-01-24T12:23:59;18.10;;;12.40;;
67768;SDS011;54569;52.018;5.584;2023-01-24T12:26:31;14.98;;;12.32;;
67768;SDS011;54569;52.018;5.584;2023-01-24T12:37:10;16.70;;;12.07;;
67768;SDS011;54569;52.018;5.584;2023-01-24T12:45:24;19.73;;;13.38;;
67768;SDS011;54569;52.018;5.584;2023-01-24T12:48:01;16.63;;;12.20;;
67768;SDS011;54569;52.018;5.584;2023-01-24T12:50:46;18.17;;;12.80;;
67768;SDS011;54569;52.018;5.584;2023-01-24T12:53:35;17.88;;;13.00;;
67768;SDS011;54569;52.018;5.584;2023-01-24T12:56:14;18.75;;;13.75;;
67768;SDS011;54569;52.018;5.584;2023-01-24T12:58:55;17.33;;;12.57;;
67768;SDS011;54569;52.018;5.584;2023-01-24T13:01:34;17.30;;;12.30;;
67768;SDS011;54569;52.018;5.584;2023-01-24T13:12:54;15.30;;;11.43;;
67768;SDS011;54569;52.018;5.584;2023-01-24T13:21:28;16.75;;;12.43;;
67768;SDS011;54569;52.018;5.584;2023-01-24T13:32:05;16.45;;;11.57;;
67768;SDS011;54569;52.018;5.584;2023-01-24T13:34:35;17.98;;;13.05;;
67768;SDS011;54569;52.018;5.584;2023-01-24T13:37:14;17.00;;;11.68;;
67768;SDS011;54569;52.018;5.584;2023-01-24T13:39:46;17.65;;;12.43;;
67768;SDS011;54569;52.018;5.584;2023-01-24T13:44:45;18.17;;;11.93;;
67768;SDS011;54569;52.018;5.584;2023-01-24T13:54:59;17.10;;;12.88;;
67768;SDS011;54569;52.018;5.584;2023-01-24T14:07:59;15.95;;;12.45;;
67768;SDS011;54569;52.018;5.584;2023-01-24T14:10:38;18.02;;;12.02;;
67768;SDS011;54569;52.018;5.584;2023-01-24T14:18:53;16.15;;;11.93;;
67768;SDS011;54569;52.018;5.584;2023-01-24T14:21:33;15.68;;;11.88;;
67768;SDS011;54569;52.018;5.584;2023-01-24T14:24:27;16.52;;;12.32;;
67768;SDS011;54569;52.018;5.584;2023-01-24T14:27:38;16.30;;;12.20;;
67768;SDS011;54569;52.018;5.584;2023-01-24T14:29:48;18.02;;;12.63;;
67768;SDS011;54569;52.018;5.584;2023-01-24T14:32:24;16.77;;;11.57;;
67768;SDS011;54569;52.018;5.584;2023-01-24T14:35:43;15.18;;;11.10;;
67768;SDS011;54569;52.018;5.584;2023-01-24T14:37:45;15.77;;;11.73;;
67768;SDS011;54569;52.018;5.584;2023-01-24T14:40:19;12.73;;;10.70;;
67768;SDS011;54569;52.018;5.584;2023-01-24T14:43:02;14.10;;;10.95;;
67768;SDS011;54569;52.018;5.584;2023-01-24T14:45:32;15.23;;;11.15;;
67768;SDS011;54569;52.018;5.584;2023-01-24T14:47:59;14.02;;;10.50;;
67768;SDS011;54569;52.018;5.584;2023-01-24T14:50:32;12.90;;;10.05;;
67768;SDS011;54569;52.018;5.584;2023-01-24T14:53:20;14.13;;;10.45;;
67768;SDS011;54569;52.018;5.584;2023-01-24T14:55:53;14.20;;;10.50;;
67768;SDS011;54569;52.018;5.584;2023-01-24T14:58:21;13.77;;;10.38;;
67768;SDS011;54569;52.018;5.584;2023-01-24T15:00:47;14.55;;;10.77;;
67768;SDS011;54569;52.018;5.584;2023-01-24T15:03:16;16.48;;;11.10;;
67768;SDS011;54569;52.018;5.584;2023-01-24T15:05:51;14.32;;;11.02;;
67768;SDS011;54569;52.018;5.584;2023-01-24T15:08:28;13.48;;;10.05;;
67768;SDS011;54569;52.018;5.584;2023-01-24T15:10:59;13.07;;;10.40;;
67768;SDS011;54569;52.018;5.584;2023-01-24T15:13:50;12.52;;;9.98;;
67768;SDS011;54569;52.018;5.584;2023-01-24T15:16:18;14.00;;;10.82;;
67768;SDS011;54569;52.018;5.584;2023-01-24T15:18:48;15.60;;;11.00;;
67768;SDS011;54569;52.018;5.584;2023-01-24T15:21:25;14.75;;;10.60;;
67768;SDS011;54569;52.018;5.584;2023-01-24T15:24:25;13.07;;;10.23;;
67768;SDS011;54569;52.018;5.584;2023-01-24T15:26:53;17.50;;;10.50;;
67768;SDS011;54569;52.018;5.584;2023-01-24T15:29:39;13.60;;;10.63;;
67768;SDS011;54569;52.018;5.584;2023-01-24T15:40:31;16.40;;;11.73;;
67768;SDS011;54569;52.018;5.584;2023-01-24T15:42:58;16.90;;;12.60;;
67768;SDS011;54569;52.018;5.584;2023-01-24T15:45:44;17.10;;;11.48;;
67768;SDS011;54569;52.018;5.584;2023-01-24T15:48:20;14.95;;;11.20;;
67768;SDS011;54569;52.018;5.584;2023-01-24T15:50:52;14.48;;;10.55;;
67768;SDS011;54569;52.018;5.584;2023-01-24T15:53:34;15.40;;;11.90;;
67768;SDS011;54569;52.018;5.584;2023-01-24T15:56:23;14.38;;;10.88;;
67768;SDS011;54569;52.018;5.584;2023-01-24T15:58:49;15.85;;;11.38;;
67768;SDS011;54569;52.018;5.584;2023-01-24T16:01:15;16.27;;;10.73;;
67768;SDS011;54569;52.018;5.584;2023-01-24T16:03:41;13.73;;;11.02;;
67768;SDS011;54569;52.018;5.584;2023-01-24T16:06:07;14.57;;;11.40;;
67768;SDS011;54569;52.018;5.584;2023-01-24T16:08:33;13.88;;;11.02;;
67768;SDS011;54569;52.018;5.584;2023-01-24T16:10:58;13.98;;;10.95;;
67768;SDS011;54569;52.018;5.584;2023-01-24T16:13:29;13.50;;;10.55;;
67768;SDS011;54569;52.018;5.584;2023-01-24T16:16:02;13.40;;;10.60;;
67768;SDS011;54569;52.018;5.584;2023-01-24T16:18:31;12.77;;;10.63;;
67768;SDS011;54569;52.018;5.584;2023-01-24T16:20:57;14.40;;;11.13;;
67768;SDS011;54569;52.018;5.584;2023-01-24T16:23:23;14.48;;;11.18;;
67768;SDS011;54569;52.018;5.584;2023-01-24T16:25:52;15.10;;;11.20;;
67768;SDS011;54569;52.018;5.584;2023-01-24T16:28:21;16.40;;;11.95;;
67768;SDS011;54569;52.018;5.584;2023-01-24T16:31:06;13.50;;;10.75;;
67768;SDS011;54569;52.018;5.584;2023-01-24T16:33:33;13.23;;;10.73;;
67768;SDS011;54569;52.018;5.584;2023-01-24T16:35:58;13.48;;;10.88;;
67768;SDS011;54569;52.018;5.584;2023-01-24T16:38:26;14.05;;;11.10;;
67768;SDS011;54569;52.018;5.584;2023-01-24T16:40:54;17.35;;;12.75;;
67768;SDS011;54569;52.018;5.584;2023-01-24T16:43:21;14.32;;;11.63;;
67768;SDS011;54569;52.018;5.584;2023-01-24T16:45:49;14.15;;;11.45;;
67768;SDS011;54569;52.018;5.584;2023-01-24T16:48:16;13.63;;;10.93;;
67768;SDS011;54569;52.018;5.584;2023-01-24T16:50:42;12.65;;;10.57;;
67768;SDS011;54569;52.018;5.584;2023-01-24T16:53:09;14.52;;;11.18;;
67768;SDS011;54569;52.018;5.584;2023-01-24T16:55:36;13.82;;;11.98;;
67768;SDS011;54569;52.018;5.584;2023-01-24T16:58:08;15.57;;;11.60;;
67768;SDS011;54569;52.018;5.584;2023-01-24T17:00:35;13.05;;;10.85;;
67768;SDS011;54569;52.018;5.584;2023-01-24T17:03:01;14.55;;;11.13;;
67768;SDS011;54569;52.018;5.584;2023-01-24T17:05:28;13.70;;;11.32;;
67768;SDS011;54569;52.018;5.584;2023-01-24T17:07:54;13.50;;;11.35;;
67768;SDS011;54569;52.018;5.584;2023-01-24T17:10:21;15.75;;;10.73;;